sensor_id;sensor_type;location;lat;lon;timestamp;pressure;altitude;pressure_sealevel;temperature;humidity
74973;BME280;63529;56.320;43.990;2023-05-01T00:01:28;98596.44;;;9.40;84.13
74973;BME280;63529;56.320;43.990;2023-05-01T00:03:54;98594.31;;;9.37;84.25
74973;BME280;63529;56.320;43.990;2023-05-01T00:06:19;98595.69;;;9.35;84.27
74973;BME280;63529;56.320;43.990;2023-05-01T00:08:45;98587.41;;;9.36;84.37
74973;BME280;63529;56.320;43.990;2023-05-01T00:11:12;98575.69;;;9.37;84.14
74973;BME280;63529;56.320;43.990;2023-05-01T00:13:38;98583.66;;;9.37;84.33
74973;BME280;63529;56.320;43.990;2023-05-01T00:16:08;98573.59;;;9.34;84.28
74973;BME280;63529;56.320;43.990;2023-05-01T00:18:34;98573.31;;;9.36;84.30
74973;BME280;63529;56.320;43.990;2023-05-01T00:21:00;98566.09;;;9.36;84.51
74973;BME280;63529;56.320;43.990;2023-05-01T00:23:27;98568.47;;;9.38;84.57
74973;BME280;63529;56.320;43.990;2023-05-01T00:25:53;98575.38;;;9.39;84.58
74973;BME280;63529;56.320;43.990;2023-05-01T00:28:19;98572.47;;;9.40;84.52
74973;BME280;63529;56.320;43.990;2023-05-01T00:30:45;98568.22;;;9.39;84.56
74973;BME280;63529;56.320;43.990;2023-05-01T00:33:12;98575.38;;;9.39;84.62
74973;BME280;63529;56.320;43.990;2023-05-01T00:35:39;98578.88;;;9.39;84.56
74973;BME280;63529;56.320;43.990;2023-05-01T00:38:05;98565.03;;;9.37;84.57
74973;BME280;63529;56.320;43.990;2023-05-01T00:40:31;98559.66;;;9.42;84.73
74973;BME280;63529;56.320;43.990;2023-05-01T00:42:57;98563.38;;;9.41;84.64
74973;BME280;63529;56.320;43.990;2023-05-01T00:45:24;98574.03;;;9.41;84.84
74973;BME280;63529;56.320;43.990;2023-05-01T00:47:50;98574.53;;;9.43;84.96
74973;BME280;63529;56.320;43.990;2023-05-01T00:50:16;98581.97;;;9.46;85.06
74973;BME280;63529;56.320;43.990;2023-05-01T00:52:42;98573.19;;;9.46;85.01
74973;BME280;63529;56.320;43.990;2023-05-01T00:55:09;98574.00;;;9.46;84.90
74973;BME280;63529;56.320;43.990;2023-05-01T00:57:34;98566.00;;;9.46;85.05
74973;BME280;63529;56.320;43.990;2023-05-01T01:00:01;98581.19;;;9.46;85.01
74973;BME280;63529;56.320;43.990;2023-05-01T01:02:30;98567.56;;;9.47;85.00
74973;BME280;63529;56.320;43.990;2023-05-01T01:04:57;98580.91;;;9.47;85.04
74973;BME280;63529;56.320;43.990;2023-05-01T01:07:35;98566.78;;;9.47;85.15
74973;BME280;63529;56.320;43.990;2023-05-01T01:15:20;98564.63;;;9.49;85.23
74973;BME280;63529;56.320;43.990;2023-05-01T01:17:58;98559.28;;;9.49;85.34
74973;BME280;63529;56.320;43.990;2023-05-01T01:20:43;98559.00;;;9.50;85.37
74973;BME280;63529;56.320;43.990;2023-05-01T01:23:34;98557.91;;;9.51;85.39
74973;BME280;63529;56.320;43.990;2023-05-01T01:26:12;98555.78;;;9.54;85.39
74973;BME280;63529;56.320;43.990;2023-05-01T01:29:27;98560.53;;;9.57;85.40
74973;BME280;63529;56.320;43.990;2023-05-01T01:34:49;98551.88;;;9.65;85.36
74973;BME280;63529;56.320;43.990;2023-05-01T01:37:20;98555.56;;;9.69;85.08
74973;BME280;63529;56.320;43.990;2023-05-01T01:39:52;98557.09;;;9.75;84.61
74973;BME280;63529;56.320;43.990;2023-05-01T01:42:23;98550.63;;;9.81;84.37
74973;BME280;63529;56.320;43.990;2023-05-01T01:44:54;98551.03;;;9.88;84.31
74973;BME280;63529;56.320;43.990;2023-05-01T01:47:25;98557.59;;;9.96;83.93
74973;BME280;63529;56.320;43.990;2023-05-01T01:50:04;98570.25;;;10.04;83.75
74973;BME280;63529;56.320;43.990;2023-05-01T01:52:32;98576.53;;;10.13;83.61
74973;BME280;63529;56.320;43.990;2023-05-01T01:55:04;98570.28;;;10.23;83.53
74973;BME280;63529;56.320;43.990;2023-05-01T01:57:33;98569.34;;;10.32;83.16
74973;BME280;63529;56.320;43.990;2023-05-01T02:00:01;98569.69;;;10.45;83.06
74973;BME280;63529;56.320;43.990;2023-05-01T02:02:30;98558.03;;;10.54;82.65
74973;BME280;63529;56.320;43.990;2023-05-01T02:04:56;98558.84;;;10.69;82.44
74973;BME280;63529;56.320;43.990;2023-05-01T02:07:25;98565.81;;;10.83;82.46
74973;BME280;63529;56.320;43.990;2023-05-01T02:09:54;98574.63;;;10.98;81.87
74973;BME280;63529;56.320;43.990;2023-05-01T02:12:22;98572.75;;;11.12;81.48
74973;BME280;63529;56.320;43.990;2023-05-01T02:14:53;98577.31;;;11.25;81.13
74973;BME280;63529;56.320;43.990;2023-05-01T02:17:20;98571.19;;;11.38;80.73
74973;BME280;63529;56.320;43.990;2023-05-01T02:19:46;98575.13;;;11.55;80.51
74973;BME280;63529;56.320;43.990;2023-05-01T02:22:13;98586.28;;;11.71;80.38
74973;BME280;63529;56.320;43.990;2023-05-01T02:24:42;98576.06;;;11.86;79.64
74973;BME280;63529;56.320;43.990;2023-05-01T02:27:54;98587.13;;;12.07;79.72
74973;BME280;63529;56.320;43.990;2023-05-01T02:30:21;98584.91;;;12.23;79.12
74973;BME280;63529;56.320;43.990;2023-05-01T02:32:47;98576.50;;;12.38;79.29
74973;BME280;63529;56.320;43.990;2023-05-01T02:35:13;98582.03;;;12.64;78.35
74973;BME280;63529;56.320;43.990;2023-05-01T02:37:39;98578.88;;;12.93;77.72
74973;BME280;63529;56.320;43.990;2023-05-01T02:40:05;98580.41;;;13.17;76.71
74973;BME280;63529;56.320;43.990;2023-05-01T02:42:32;98587.44;;;13.35;76.21
74973;BME280;63529;56.320;43.990;2023-05-01T02:45:02;98585.91;;;13.51;76.78
74973;BME280;63529;56.320;43.990;2023-05-01T02:47:37;98598.41;;;13.65;76.45
74973;BME280;63529;56.320;43.990;2023-05-01T02:50:05;98597.16;;;13.71;76.51
74973;BME280;63529;56.320;43.990;2023-05-01T02:52:33;98601.28;;;13.77;76.00
74973;BME280;63529;56.320;43.990;2023-05-01T02:55:19;98604.28;;;13.84;75.84
74973;BME280;63529;56.320;43.990;2023-05-01T02:57:49;98606.81;;;13.98;74.98
74973;BME280;63529;56.320;43.990;2023-05-01T03:00:16;98603.06;;;14.16;75.72
74973;BME280;63529;56.320;43.990;2023-05-01T03:02:42;98614.09;;;14.32;75.34
74973;BME280;63529;56.320;43.990;2023-05-01T03:05:08;98620.91;;;14.55;75.58
74973;BME280;63529;56.320;43.990;2023-05-01T03:07:34;98615.81;;;14.80;73.93
74973;BME280;63529;56.320;43.990;2023-05-01T03:10:05;98611.81;;;15.03;72.47
74973;BME280;63529;56.320;43.990;2023-05-01T03:12:32;98615.06;;;15.26;72.75
74973;BME280;63529;56.320;43.990;2023-05-01T03:14:58;98606.72;;;15.48;72.13
74973;BME280;63529;56.320;43.990;2023-05-01T03:17:25;98610.78;;;15.63;71.13
74973;BME280;63529;56.320;43.990;2023-05-01T03:19:50;98626.22;;;15.75;70.63
74973;BME280;63529;56.320;43.990;2023-05-01T03:22:16;98638.00;;;15.62;70.76
74973;BME280;63529;56.320;43.990;2023-05-01T03:24:43;98643.91;;;15.46;70.02
74973;BME280;63529;56.320;43.990;2023-05-01T03:27:09;98633.69;;;15.31;70.52
74973;BME280;63529;56.320;43.990;2023-05-01T03:29:36;98625.16;;;15.29;72.01
74973;BME280;63529;56.320;43.990;2023-05-01T03:32:05;98638.44;;;15.34;72.45
74973;BME280;63529;56.320;43.990;2023-05-01T03:34:31;98640.50;;;15.29;71.04
74973;BME280;63529;56.320;43.990;2023-05-01T03:36:57;98645.72;;;15.25;70.76
74973;BME280;63529;56.320;43.990;2023-05-01T03:39:25;98649.69;;;15.19;72.64
74973;BME280;63529;56.320;43.990;2023-05-01T03:42:10;98648.31;;;15.13;70.83
74973;BME280;63529;56.320;43.990;2023-05-01T03:44:39;98652.56;;;15.05;70.54
74973;BME280;63529;56.320;43.990;2023-05-01T03:47:06;98647.53;;;15.04;72.58
74973;BME280;63529;56.320;43.990;2023-05-01T03:49:37;98664.94;;;15.06;71.24
74973;BME280;63529;56.320;43.990;2023-05-01T03:52:03;98661.25;;;15.11;71.84
74973;BME280;63529;56.320;43.990;2023-05-01T03:54:29;98661.56;;;15.18;72.53
74973;BME280;63529;56.320;43.990;2023-05-01T03:57:13;98664.81;;;15.41;70.18
74973;BME280;63529;56.320;43.990;2023-05-01T03:59:39;98674.41;;;15.59;71.41
74973;BME280;63529;56.320;43.990;2023-05-01T04:02:09;98672.44;;;15.77;71.79
74973;BME280;63529;56.320;43.990;2023-05-01T04:04:36;98672.94;;;16.00;72.52
74973;BME280;63529;56.320;43.990;2023-05-01T04:07:03;98676.59;;;16.25;70.14
74973;BME280;63529;56.320;43.990;2023-05-01T04:09:29;98668.59;;;16.37;69.51
74973;BME280;63529;56.320;43.990;2023-05-01T04:11:56;98654.00;;;16.38;68.39
74973;BME280;63529;56.320;43.990;2023-05-01T04:14:22;98662.94;;;16.30;70.24
74973;BME280;63529;56.320;43.990;2023-05-01T04:16:48;98654.81;;;16.09;68.85
74973;BME280;63529;56.320;43.990;2023-05-01T04:19:16;98657.06;;;15.78;70.34
74973;BME280;63529;56.320;43.990;2023-05-01T04:21:45;98663.53;;;15.47;70.58
74973;BME280;63529;56.320;43.990;2023-05-01T04:24:11;98681.31;;;15.22;71.80
74973;BME280;63529;56.320;43.990;2023-05-01T04:26:38;98674.56;;;14.99;71.85
74973;BME280;63529;56.320;43.990;2023-05-01T04:29:04;98681.09;;;14.80;73.06
74973;BME280;63529;56.320;43.990;2023-05-01T04:31:30;98681.06;;;14.72;73.10
74973;BME280;63529;56.320;43.990;2023-05-01T04:33:55;98705.72;;;14.65;73.45
74973;BME280;63529;56.320;43.990;2023-05-01T04:36:21;98716.81;;;14.55;73.75
74973;BME280;63529;56.320;43.990;2023-05-01T04:38:48;98731.75;;;14.38;72.81
74973;BME280;63529;56.320;43.990;2023-05-01T04:41:14;98740.56;;;14.22;73.34
74973;BME280;63529;56.320;43.990;2023-05-01T04:43:40;98749.81;;;14.07;73.75
74973;BME280;63529;56.320;43.990;2023-05-01T04:46:06;98743.31;;;13.99;74.49
74973;BME280;63529;56.320;43.990;2023-05-01T04:48:32;98719.03;;;13.96;74.03
74973;BME280;63529;56.320;43.990;2023-05-01T04:50:59;98703.72;;;14.05;75.21
74973;BME280;63529;56.320;43.990;2023-05-01T04:53:28;98705.69;;;14.30;77.37
74973;BME280;63529;56.320;43.990;2023-05-01T04:55:54;98711.91;;;14.48;74.57
74973;BME280;63529;56.320;43.990;2023-05-01T04:58:20;98716.34;;;14.61;72.96
74973;BME280;63529;56.320;43.990;2023-05-01T05:00:50;98716.63;;;14.77;73.02
74973;BME280;63529;56.320;43.990;2023-05-01T05:03:20;98717.56;;;14.90;73.50
74973;BME280;63529;56.320;43.990;2023-05-01T05:05:46;98712.50;;;14.97;72.35
74973;BME280;63529;56.320;43.990;2023-05-01T05:08:12;98737.63;;;14.92;71.50
74973;BME280;63529;56.320;43.990;2023-05-01T05:11:06;98744.91;;;14.83;72.32
74973;BME280;63529;56.320;43.990;2023-05-01T05:13:56;98755.19;;;14.81;72.08
74973;BME280;63529;56.320;43.990;2023-05-01T05:16:22;98740.81;;;14.95;73.67
74973;BME280;63529;56.320;43.990;2023-05-01T05:18:48;98720.38;;;15.28;73.22
74973;BME280;63529;56.320;43.990;2023-05-01T05:21:15;98713.41;;;15.83;73.12
74973;BME280;63529;56.320;43.990;2023-05-01T05:23:46;98714.03;;;16.60;72.78
74973;BME280;63529;56.320;43.990;2023-05-01T05:26:12;98705.41;;;17.66;70.16
74973;BME280;63529;56.320;43.990;2023-05-01T05:28:39;98704.09;;;18.73;69.35
74973;BME280;63529;56.320;43.990;2023-05-01T05:31:06;98699.31;;;19.70;66.27
74973;BME280;63529;56.320;43.990;2023-05-01T05:33:33;98713.50;;;20.14;65.28
74973;BME280;63529;56.320;43.990;2023-05-01T05:35:59;98721.88;;;20.25;64.94
74973;BME280;63529;56.320;43.990;2023-05-01T05:38:30;98726.66;;;20.31;64.10
74973;BME280;63529;56.320;43.990;2023-05-01T05:40:57;98740.16;;;20.12;58.47
74973;BME280;63529;56.320;43.990;2023-05-01T05:43:24;98739.31;;;19.92;61.56
74973;BME280;63529;56.320;43.990;2023-05-01T05:45:50;98738.63;;;19.64;62.57
74973;BME280;63529;56.320;43.990;2023-05-01T05:48:16;98740.06;;;19.45;62.04
74973;BME280;63529;56.320;43.990;2023-05-01T05:50:42;98743.44;;;18.98;62.58
74973;BME280;63529;56.320;43.990;2023-05-01T05:53:09;98748.16;;;18.49;61.31
74973;BME280;63529;56.320;43.990;2023-05-01T05:55:37;98745.25;;;18.17;62.73
74973;BME280;63529;56.320;43.990;2023-05-01T05:58:05;98758.53;;;18.35;62.69
74973;BME280;63529;56.320;43.990;2023-05-01T06:00:31;98753.00;;;18.43;62.28
74973;BME280;63529;56.320;43.990;2023-05-01T06:03:02;98750.84;;;18.61;64.56
74973;BME280;63529;56.320;43.990;2023-05-01T06:05:30;98756.59;;;19.00;64.09
74973;BME280;63529;56.320;43.990;2023-05-01T06:07:56;98756.47;;;19.52;64.56
74973;BME280;63529;56.320;43.990;2023-05-01T06:10:22;98751.72;;;19.77;60.09
74973;BME280;63529;56.320;43.990;2023-05-01T06:12:48;98768.16;;;19.85;59.45
74973;BME280;63529;56.320;43.990;2023-05-01T06:15:32;98783.56;;;19.24;58.43
74973;BME280;63529;56.320;43.990;2023-05-01T06:17:58;98781.16;;;18.67;62.86
74973;BME280;63529;56.320;43.990;2023-05-01T06:20:24;98777.44;;;18.10;63.36
74973;BME280;63529;56.320;43.990;2023-05-01T06:22:50;98778.94;;;17.62;64.03
74973;BME280;63529;56.320;43.990;2023-05-01T06:25:21;98793.19;;;17.18;64.92
74973;BME280;63529;56.320;43.990;2023-05-01T06:27:52;98821.75;;;16.77;64.34
74973;BME280;63529;56.320;43.990;2023-05-01T06:30:20;98819.19;;;16.42;64.58
74973;BME280;63529;56.320;43.990;2023-05-01T06:32:47;98815.03;;;16.24;66.99
74973;BME280;63529;56.320;43.990;2023-05-01T06:35:14;98793.78;;;16.22;68.00
74973;BME280;63529;56.320;43.990;2023-05-01T06:37:40;98753.50;;;16.35;68.34
74973;BME280;63529;56.320;43.990;2023-05-01T06:40:08;98725.25;;;16.70;69.28
74973;BME280;63529;56.320;43.990;2023-05-01T06:42:36;98702.84;;;17.12;69.01
74973;BME280;63529;56.320;43.990;2023-05-01T06:45:02;98711.56;;;17.54;68.44
74973;BME280;63529;56.320;43.990;2023-05-01T06:47:32;98700.84;;;17.90;67.94
74973;BME280;63529;56.320;43.990;2023-05-01T06:49:58;98714.66;;;18.26;67.17
74973;BME280;63529;56.320;43.990;2023-05-01T06:52:24;98772.81;;;18.48;62.95
74973;BME280;63529;56.320;43.990;2023-05-01T06:54:50;98790.38;;;18.41;65.20
74973;BME280;63529;56.320;43.990;2023-05-01T06:57:16;98787.59;;;18.26;64.63
74973;BME280;63529;56.320;43.990;2023-05-01T06:59:42;98791.19;;;18.17;65.55
74973;BME280;63529;56.320;43.990;2023-05-01T07:02:08;98791.63;;;18.07;62.34
74973;BME280;63529;56.320;43.990;2023-05-01T07:04:34;98799.72;;;17.83;64.08
74973;BME280;63529;56.320;43.990;2023-05-01T07:07:00;98820.88;;;17.60;65.65
74973;BME280;63529;56.320;43.990;2023-05-01T07:09:27;98830.31;;;17.33;65.80
74973;BME280;63529;56.320;43.990;2023-05-01T07:11:53;98826.59;;;17.04;66.58
74973;BME280;63529;56.320;43.990;2023-05-01T07:14:22;98834.09;;;16.78;67.21
74973;BME280;63529;56.320;43.990;2023-05-01T07:16:48;98843.09;;;16.52;68.06
74973;BME280;63529;56.320;43.990;2023-05-01T07:19:14;98823.41;;;16.31;68.34
74973;BME280;63529;56.320;43.990;2023-05-01T07:21:40;98839.13;;;16.20;69.44
74973;BME280;63529;56.320;43.990;2023-05-01T07:24:06;98846.72;;;16.18;69.15
74973;BME280;63529;56.320;43.990;2023-05-01T07:26:32;98857.97;;;16.20;69.41
74973;BME280;63529;56.320;43.990;2023-05-01T07:28:58;98853.53;;;16.16;68.76
74973;BME280;63529;56.320;43.990;2023-05-01T07:31:24;98855.16;;;16.08;68.20
74973;BME280;63529;56.320;43.990;2023-05-01T07:33:50;98840.63;;;16.00;68.64
74973;BME280;63529;56.320;43.990;2023-05-01T07:36:16;98853.13;;;15.96;69.65
74973;BME280;63529;56.320;43.990;2023-05-01T07:38:45;98864.38;;;15.90;72.83
74973;BME280;63529;56.320;43.990;2023-05-01T07:41:12;98863.28;;;15.82;70.77
74973;BME280;63529;56.320;43.990;2023-05-01T07:43:38;98877.56;;;15.74;70.15
74973;BME280;63529;56.320;43.990;2023-05-01T07:46:04;98880.75;;;15.67;69.56
74973;BME280;63529;56.320;43.990;2023-05-01T07:48:31;98894.03;;;15.64;71.49
74973;BME280;63529;56.320;43.990;2023-05-01T07:51:00;98894.97;;;15.59;71.04
74973;BME280;63529;56.320;43.990;2023-05-01T07:53:26;98896.88;;;15.59;71.26
74973;BME280;63529;56.320;43.990;2023-05-01T07:55:52;98915.19;;;15.57;71.30
74973;BME280;63529;56.320;43.990;2023-05-01T07:58:18;98911.09;;;15.51;69.91
74973;BME280;63529;56.320;43.990;2023-05-01T08:00:45;98925.50;;;15.46;70.76
74973;BME280;63529;56.320;43.990;2023-05-01T08:03:11;98931.97;;;15.36;69.75
74973;BME280;63529;56.320;43.990;2023-05-01T08:05:41;98927.53;;;15.23;68.74
74973;BME280;63529;56.320;43.990;2023-05-01T08:08:07;98943.16;;;15.12;69.85
74973;BME280;63529;56.320;43.990;2023-05-01T08:10:33;98962.75;;;15.04;71.50
74973;BME280;63529;56.320;43.990;2023-05-01T08:12:59;98979.66;;;14.96;72.11
74973;BME280;63529;56.320;43.990;2023-05-01T08:15:25;98995.75;;;14.87;70.71
74973;BME280;63529;56.320;43.990;2023-05-01T08:17:51;99008.97;;;14.75;71.40
74973;BME280;63529;56.320;43.990;2023-05-01T08:20:17;99010.34;;;14.64;72.03
74973;BME280;63529;56.320;43.990;2023-05-01T08:22:43;99007.91;;;14.54;72.77
74973;BME280;63529;56.320;43.990;2023-05-01T08:25:09;98982.47;;;14.51;72.76
74973;BME280;63529;56.320;43.990;2023-05-01T08:27:34;98976.50;;;14.54;73.25
74973;BME280;63529;56.320;43.990;2023-05-01T08:30:00;98953.31;;;14.67;71.82
74973;BME280;63529;56.320;43.990;2023-05-01T08:32:26;98957.69;;;14.94;73.34
74973;BME280;63529;56.320;43.990;2023-05-01T08:34:52;98944.75;;;15.13;73.19
74973;BME280;63529;56.320;43.990;2023-05-01T08:37:18;98943.50;;;15.28;72.49
74973;BME280;63529;56.320;43.990;2023-05-01T08:39:44;98932.75;;;15.37;71.65
74973;BME280;63529;56.320;43.990;2023-05-01T08:42:10;98935.16;;;15.47;72.47
74973;BME280;63529;56.320;43.990;2023-05-01T08:44:37;98939.72;;;15.55;72.74
74973;BME280;63529;56.320;43.990;2023-05-01T08:47:16;98933.09;;;15.61;72.66
74973;BME280;63529;56.320;43.990;2023-05-01T08:49:43;98947.66;;;15.60;70.86
74973;BME280;63529;56.320;43.990;2023-05-01T08:52:11;98951.31;;;15.64;72.08
74973;BME280;63529;56.320;43.990;2023-05-01T08:54:41;98951.66;;;15.71;71.56
74973;BME280;63529;56.320;43.990;2023-05-01T08:57:09;98948.78;;;15.85;71.82
74973;BME280;63529;56.320;43.990;2023-05-01T08:59:36;98946.53;;;16.05;71.12
74973;BME280;63529;56.320;43.990;2023-05-01T09:02:05;98950.28;;;16.21;70.72
74973;BME280;63529;56.320;43.990;2023-05-01T09:04:41;98956.75;;;16.28;70.98
74973;BME280;63529;56.320;43.990;2023-05-01T09:07:08;98947.53;;;16.47;70.22
74973;BME280;63529;56.320;43.990;2023-05-01T09:09:37;98953.66;;;16.65;70.87
74973;BME280;63529;56.320;43.990;2023-05-01T09:12:24;98963.31;;;16.66;71.53
74973;BME280;63529;56.320;43.990;2023-05-01T09:14:52;98959.72;;;16.53;69.00
74973;BME280;63529;56.320;43.990;2023-05-01T09:17:19;98960.88;;;16.43;67.85
74973;BME280;63529;56.320;43.990;2023-05-01T09:19:47;98963.25;;;16.36;67.89
74973;BME280;63529;56.320;43.990;2023-05-01T09:22:14;98947.09;;;16.27;69.73
74973;BME280;63529;56.320;43.990;2023-05-01T09:24:40;98932.66;;;16.41;68.43
74973;BME280;63529;56.320;43.990;2023-05-01T09:27:06;98923.66;;;16.75;69.14
74973;BME280;63529;56.320;43.990;2023-05-01T09:29:43;98925.69;;;17.07;70.37
74973;BME280;63529;56.320;43.990;2023-05-01T09:32:24;98908.22;;;17.55;69.72
74973;BME280;63529;56.320;43.990;2023-05-01T09:34:54;98897.03;;;17.99;68.30
74973;BME280;63529;56.320;43.990;2023-05-01T09:37:27;98879.91;;;18.77;68.52
74973;BME280;63529;56.320;43.990;2023-05-01T09:40:10;98869.31;;;19.76;66.50
74973;BME280;63529;56.320;43.990;2023-05-01T09:42:48;98872.69;;;20.49;64.96
74973;BME280;63529;56.320;43.990;2023-05-01T09:45:15;98874.97;;;21.17;62.78
74973;BME280;63529;56.320;43.990;2023-05-01T09:47:42;98874.53;;;21.50;61.62
74973;BME280;63529;56.320;43.990;2023-05-01T09:50:10;98868.81;;;21.36;60.03
74973;BME280;63529;56.320;43.990;2023-05-01T09:52:36;98875.44;;;21.19;60.29
74973;BME280;63529;56.320;43.990;2023-05-01T09:55:13;98871.91;;;21.19;63.10
74973;BME280;63529;56.320;43.990;2023-05-01T09:57:39;98890.28;;;21.25;61.15
74973;BME280;63529;56.320;43.990;2023-05-01T10:00:11;98899.50;;;21.21;61.65
74973;BME280;63529;56.320;43.990;2023-05-01T10:02:40;98895.31;;;20.88;61.78
74973;BME280;63529;56.320;43.990;2023-05-01T10:05:08;98908.97;;;20.76;62.12
74973;BME280;63529;56.320;43.990;2023-05-01T10:07:35;98895.16;;;20.65;60.56
74973;BME280;63529;56.320;43.990;2023-05-01T10:10:20;98880.38;;;20.98;63.83
74973;BME280;63529;56.320;43.990;2023-05-01T10:12:47;98884.19;;;20.77;60.87
74973;BME280;63529;56.320;43.990;2023-05-01T10:15:14;98901.72;;;20.48;60.32
74973;BME280;63529;56.320;43.990;2023-05-01T10:17:41;98897.84;;;20.33;62.15
74973;BME280;63529;56.320;43.990;2023-05-01T10:20:10;98888.03;;;19.97;60.21
74973;BME280;63529;56.320;43.990;2023-05-01T10:22:40;98889.47;;;19.79;60.93
74973;BME280;63529;56.320;43.990;2023-05-01T10:25:10;98892.53;;;19.77;63.29
74973;BME280;63529;56.320;43.990;2023-05-01T10:27:41;98899.09;;;19.76;61.77
74973;BME280;63529;56.320;43.990;2023-05-01T10:30:08;98906.13;;;19.53;62.85
74973;BME280;63529;56.320;43.990;2023-05-01T10:32:36;98958.97;;;19.22;63.27
74973;BME280;63529;56.320;43.990;2023-05-01T10:35:11;98974.31;;;18.69;59.88
74973;BME280;63529;56.320;43.990;2023-05-01T10:37:47;98910.63;;;18.35;62.42
74973;BME280;63529;56.320;43.990;2023-05-01T10:45:45;98969.88;;;17.66;65.89
74973;BME280;63529;56.320;43.990;2023-05-01T10:48:12;99116.00;;;17.17;63.33
74973;BME280;63529;56.320;43.990;2023-05-01T10:53:34;99201.50;;;16.13;64.65
74973;BME280;63529;56.320;43.990;2023-05-01T10:56:00;99089.66;;;15.72;66.30
74973;BME280;63529;56.320;43.990;2023-05-01T11:01:33;98940.81;;;15.37;71.13
74973;BME280;63529;56.320;43.990;2023-05-01T11:04:04;98937.03;;;15.38;70.25
74973;BME280;63529;56.320;43.990;2023-05-01T11:06:33;98900.19;;;15.47;70.16
74973;BME280;63529;56.320;43.990;2023-05-01T11:09:01;98878.81;;;15.59;69.40
74973;BME280;63529;56.320;43.990;2023-05-01T11:19:03;99015.09;;;15.72;73.69
74973;BME280;63529;56.320;43.990;2023-05-01T11:21:33;98995.31;;;15.77;72.20
74973;BME280;63529;56.320;43.990;2023-05-01T11:24:02;98986.63;;;15.80;71.12
74973;BME280;63529;56.320;43.990;2023-05-01T11:26:29;98997.53;;;15.84;69.64
74973;BME280;63529;56.320;43.990;2023-05-01T11:28:57;98984.38;;;15.82;71.12
74973;BME280;63529;56.320;43.990;2023-05-01T11:31:24;98960.63;;;15.84;70.70
74973;BME280;63529;56.320;43.990;2023-05-01T11:33:51;98975.34;;;15.95;69.47
74973;BME280;63529;56.320;43.990;2023-05-01T11:36:20;99028.88;;;16.06;69.92
74973;BME280;63529;56.320;43.990;2023-05-01T11:38:50;99044.06;;;15.93;70.32
74973;BME280;63529;56.320;43.990;2023-05-01T11:41:19;99053.88;;;15.80;70.96
74973;BME280;63529;56.320;43.990;2023-05-01T11:43:52;99057.84;;;15.65;71.12
74973;BME280;63529;56.320;43.990;2023-05-01T11:46:28;99061.41;;;15.52;71.05
74973;BME280;63529;56.320;43.990;2023-05-01T11:48:59;99066.59;;;15.40;71.00
74973;BME280;63529;56.320;43.990;2023-05-01T11:51:27;99061.38;;;15.35;71.52
74973;BME280;63529;56.320;43.990;2023-05-01T11:54:06;99062.13;;;15.27;72.16
74973;BME280;63529;56.320;43.990;2023-05-01T11:56:33;99064.94;;;15.13;72.33
74973;BME280;63529;56.320;43.990;2023-05-01T12:01:39;99063.44;;;14.98;73.57
74973;BME280;63529;56.320;43.990;2023-05-01T12:04:06;99054.72;;;14.92;73.30
74973;BME280;63529;56.320;43.990;2023-05-01T12:06:37;99064.19;;;14.90;73.14
74973;BME280;63529;56.320;43.990;2023-05-01T12:09:06;99063.88;;;14.91;72.88
74973;BME280;63529;56.320;43.990;2023-05-01T12:11:35;99058.72;;;15.04;72.58
74973;BME280;63529;56.320;43.990;2023-05-01T12:14:02;99056.22;;;15.07;72.07
74973;BME280;63529;56.320;43.990;2023-05-01T12:16:29;99054.47;;;15.11;73.07
74973;BME280;63529;56.320;43.990;2023-05-01T12:18:55;99050.84;;;15.07;73.13
74973;BME280;63529;56.320;43.990;2023-05-01T12:21:21;99065.31;;;14.98;73.01
74973;BME280;63529;56.320;43.990;2023-05-01T12:23:47;99066.09;;;14.89;72.72
74973;BME280;63529;56.320;43.990;2023-05-01T12:26:18;99069.38;;;14.86;72.45
74973;BME280;63529;56.320;43.990;2023-05-01T12:28:55;99071.47;;;14.89;73.03
74973;BME280;63529;56.320;43.990;2023-05-01T12:31:21;99071.00;;;14.96;73.68
74973;BME280;63529;56.320;43.990;2023-05-01T12:33:58;99065.81;;;15.00;73.54
74973;BME280;63529;56.320;43.990;2023-05-01T12:36:28;99070.22;;;14.96;72.34
74973;BME280;63529;56.320;43.990;2023-05-01T12:38:58;99075.56;;;14.87;73.25
74973;BME280;63529;56.320;43.990;2023-05-01T12:46:44;99061.50;;;14.59;73.05
74973;BME280;63529;56.320;43.990;2023-05-01T12:49:16;99066.75;;;14.64;73.78
74973;BME280;63529;56.320;43.990;2023-05-01T12:51:51;99057.41;;;14.61;73.79
74973;BME280;63529;56.320;43.990;2023-05-01T12:54:22;99048.69;;;14.56;71.31
74973;BME280;63529;56.320;43.990;2023-05-01T12:56:49;99051.38;;;14.56;72.93
74973;BME280;63529;56.320;43.990;2023-05-01T12:59:23;99052.03;;;14.61;73.04
74973;BME280;63529;56.320;43.990;2023-05-01T13:01:59;99045.00;;;14.74;73.30
74973;BME280;63529;56.320;43.990;2023-05-01T13:04:26;99050.09;;;14.84;72.69
74973;BME280;63529;56.320;43.990;2023-05-01T13:06:53;99051.06;;;14.88;72.31
74973;BME280;63529;56.320;43.990;2023-05-01T13:09:23;99062.41;;;14.85;72.80
74973;BME280;63529;56.320;43.990;2023-05-01T13:12:19;99060.00;;;14.75;73.82
74973;BME280;63529;56.320;43.990;2023-05-01T13:14:45;99059.16;;;14.66;73.28
74973;BME280;63529;56.320;43.990;2023-05-01T13:17:23;99064.97;;;14.59;74.20
74973;BME280;63529;56.320;43.990;2023-05-01T13:22:37;99058.69;;;14.42;74.68
74973;BME280;63529;56.320;43.990;2023-05-01T13:25:15;99060.69;;;14.36;74.18
74973;BME280;63529;56.320;43.990;2023-05-01T13:27:47;99069.66;;;14.31;74.10
74973;BME280;63529;56.320;43.990;2023-05-01T13:30:15;99083.19;;;14.26;74.69
74973;BME280;63529;56.320;43.990;2023-05-01T13:32:45;99086.13;;;14.16;73.92
74973;BME280;63529;56.320;43.990;2023-05-01T13:35:21;99098.97;;;14.05;74.64
74973;BME280;63529;56.320;43.990;2023-05-01T13:37:47;99093.03;;;13.95;74.37